createdAt,value
2023-04-19T00:00:13.873Z,71.90551758
2023-04-19T00:01:15.454Z,71.90551758
2023-04-19T00:02:16.710Z,72.10693359
2023-04-19T00:03:17.956Z,72.21069336
2023-04-19T00:04:19.043Z,72.10693359
2023-04-19T00:05:20.466Z,72.10693359
2023-04-19T00:06:21.899Z,71.90551758
2023-04-19T00:07:22.998Z,71.90551758
2023-04-19T00:08:23.881Z,72.10693359
2023-04-19T00:09:25.365Z,72.00317383
2023-04-19T00:10:26.273Z,71.90551758
2023-04-19T00:11:27.857Z,72.00317383
2023-04-19T00:12:28.934Z,72.10693359
2023-04-19T00:13:29.871Z,72.00317383
2023-04-19T00:14:31.348Z,72.00317383
2023-04-19T00:15:33.483Z,72.21069336
2023-04-19T00:16:35.964Z,72.10693359
2023-04-19T00:18:07.899Z,72.10693359
2023-04-19T00:19:09.344Z,72.3449707
2023-04-19T00:20:10.307Z,72.44873047
2023-04-19T00:21:11.987Z,72.54638672
2023-04-19T00:22:13.534Z,72.44873047
2023-04-19T00:23:14.586Z,72.3449707
2023-04-19T00:24:15.731Z,72.44873047
2023-04-19T00:25:16.474Z,72.24121094
2023-04-19T00:26:18.496Z,72.24121094
2023-04-19T00:27:19.679Z,72.10693359
2023-04-19T00:28:20.631Z,72.24121094
2023-04-19T00:29:22.386Z,72.24121094
2023-04-19T00:30:23.415Z,72.24121094
2023-04-19T00:31:24.616Z,72.3449707
2023-04-19T00:32:26.510Z,72.3449707
2023-04-19T00:33:28.375Z,72.3449707
2023-04-19T00:34:29.278Z,72.13745117
2023-04-19T00:35:30.893Z,72.10693359
2023-04-19T00:36:32.866Z,72.00317383
2023-04-19T00:37:34.021Z,72.44873047
2023-04-19T00:39:06.368Z,72.65014648
2023-04-19T00:40:08.318Z,72.54638672
2023-04-19T00:41:10.102Z,72.54638672
2023-04-19T00:42:11.896Z,72.54638672
2023-04-19T00:43:13.999Z,72.88818359
2023-04-19T00:44:15.305Z,72.99194336
2023-04-19T00:45:16.027Z,73.29711914
2023-04-19T00:46:18.009Z,73.29711914
2023-04-19T00:47:19.937Z,73.50463867
2023-04-19T00:48:21.049Z,73.60839844
2023-04-19T00:49:22.926Z,73.60839844
2023-04-19T00:50:23.949Z,73.63891602
2023-04-19T00:51:26.012Z,73.63891602
2023-04-19T00:52:27.026Z,73.84643555
2023-04-19T00:53:28.191Z,73.9440918
2023-04-19T00:54:29.256Z,74.04785156
2023-04-19T00:55:30.386Z,74.25537109
2023-04-19T00:56:31.968Z,74.35302734
2023-04-19T00:57:32.996Z,74.56054688
2023-04-19T00:58:34.437Z,74.66430664
2023-04-19T01:00:06.004Z,74.69482422
2023-04-19T01:01:08.027Z,74.90234375
2023-04-19T01:02:09.148Z,75.3112793
2023-04-19T01:03:10.206Z,75.3112793
2023-04-19T01:04:11.965Z,75.10375977
2023-04-19T01:05:12.913Z,75.00610352
2023-04-19T01:06:15.002Z,74.90234375
2023-04-19T01:07:16.841Z,74.90234375
2023-04-19T01:08:17.759Z,75.20751953
2023-04-19T01:09:18.957Z,75.3112793
2023-04-19T01:10:21.063Z,75.3112793
2023-04-19T01:11:22.970Z,75.3112793
2023-04-19T01:12:23.872Z,75.3112793
2023-04-19T01:13:25.383Z,75.10375977
2023-04-19T01:14:26.476Z,75.20751953
2023-04-19T01:15:27.498Z,75.3112793
2023-04-19T01:16:29.716Z,75.3112793
2023-04-19T01:17:31.450Z,75.3112793
2023-04-19T01:18:32.451Z,75.3112793
2023-04-19T01:19:33.511Z,75.54931641
2023-04-19T01:21:06.317Z,75.75683594
2023-04-19T01:22:07.298Z,75.75683594
2023-04-19T01:23:08.237Z,75.95825195
2023-04-19T01:24:09.951Z,76.06201172
2023-04-19T01:25:10.973Z,75.95825195
2023-04-19T01:26:14.138Z,75.8605957
2023-04-19T01:27:15.239Z,75.75683594
2023-04-19T01:28:16.333Z,75.8605957
2023-04-19T01:29:18.008Z,75.75683594
2023-04-19T01:30:19.216Z,75.54931641
2023-04-19T01:31:21.405Z,75.54931641
2023-04-19T01:32:22.533Z,75.65307617
2023-04-19T01:33:23.549Z,75.65307617
2023-04-19T01:34:24.627Z,75.34790039
2023-04-19T01:35:25.888Z,75.45166016
2023-04-19T01:36:28.505Z,75.65307617
2023-04-19T01:37:29.582Z,75.65307617
2023-04-19T01:38:31.599Z,75.65307617
2023-04-19T01:39:33.449Z,75.75683594
2023-04-19T01:41:06.069Z,75.8605957
2023-04-19T01:42:07.135Z,75.75683594
2023-04-19T01:43:08.985Z,75.95825195
2023-04-19T01:44:10.024Z,76.06201172
2023-04-19T01:45:11.974Z,75.8605957
2023-04-19T01:46:14.102Z,75.8605957
2023-04-19T01:47:16.081Z,75.8605957
2023-04-19T01:48:17.232Z,75.65307617
2023-04-19T01:49:18.357Z,75.45166016
2023-04-19T01:50:19.471Z,75.54931641
2023-04-19T01:51:21.519Z,75.65307617
2023-04-19T01:52:23.364Z,76.06201172
2023-04-19T01:53:24.477Z,76.06201172
2023-04-19T01:54:26.465Z,76.16577148
2023-04-19T01:55:27.478Z,75.95825195
2023-04-19T01:56:30.433Z,76.26953125
2023-04-19T01:57:31.395Z,76.50756836
2023-04-19T01:58:32.504Z,76.81274414
2023-04-19T01:59:33.964Z,76.40380859
2023-04-19T02:01:06.468Z,76.40380859
2023-04-19T02:02:07.580Z,76.40380859
2023-04-19T02:03:08.698Z,76.61132813
2023-04-19T02:04:09.706Z,76.3671875
2023-04-19T02:05:10.678Z,76.3671875
2023-04-19T02:06:12.509Z,76.3671875
2023-04-19T02:07:14.485Z,76.3671875
2023-04-19T02:08:15.586Z,76.3671875
2023-04-19T02:09:17.494Z,76.61132813
2023-04-19T02:10:18.702Z,76.81274414
2023-04-19T02:11:20.370Z,77.12402344
2023-04-19T02:12:21.462Z,76.81274414
2023-04-19T02:13:22.480Z,76.81274414
2023-04-19T02:14:23.617Z,76.61132813
2023-04-19T02:15:24.653Z,76.47094727
2023-04-19T02:16:26.388Z,76.47094727
2023-04-19T02:17:28.066Z,76.47094727
2023-04-19T02:18:29.017Z,76.57470703
2023-04-19T02:19:30.994Z,76.3671875
2023-04-19T02:20:32.919Z,75.95825195
2023-04-19T02:22:05.392Z,75.75683594
2023-04-19T02:23:07.422Z,75.75683594
2023-04-19T02:24:09.588Z,76.06201172
2023-04-19T02:25:10.644Z,76.3671875
2023-04-19T02:26:12.500Z,76.16577148
2023-04-19T02:27:14.313Z,76.16577148
2023-04-19T02:28:15.420Z,76.26953125
2023-04-19T02:29:16.558Z,76.16577148
2023-04-19T02:30:17.646Z,76.16577148
2023-04-19T02:31:19.364Z,76.06201172
2023-04-19T02:32:20.365Z,76.16577148
2023-04-19T02:33:21.503Z,76.26953125
2023-04-19T02:34:22.584Z,76.26953125
2023-04-19T02:35:23.568Z,76.47094727
2023-04-19T02:36:25.484Z,76.47094727
2023-04-19T02:37:27.392Z,76.26953125
2023-04-19T02:38:28.549Z,76.26953125
2023-04-19T02:39:30.488Z,76.26953125
2023-04-19T02:40:31.572Z,76.26953125
2023-04-19T02:42:04.306Z,75.95825195
2023-04-19T02:43:05.279Z,75.92773438
2023-04-19T02:44:06.909Z,75.82397461
2023-04-19T02:45:07.967Z,75.72021484
2023-04-19T02:46:10.094Z,75.72021484
2023-04-19T02:47:11.809Z,75.61645508
2023-04-19T02:48:13.935Z,75.72021484
2023-04-19T02:49:14.839Z,75.72021484
2023-04-19T02:50:15.920Z,75.72021484
2023-04-19T02:51:17.885Z,75.2746582
2023-04-19T02:52:19.380Z,74.96948242
2023-04-19T02:53:20.362Z,75.07324219
2023-04-19T02:54:21.353Z,74.96948242
2023-04-19T02:55:22.439Z,74.76196289
2023-04-19T02:56:24.342Z,74.76196289
2023-04-19T02:57:25.864Z,74.76196289
2023-04-19T02:58:26.935Z,74.96948242
2023-04-19T02:59:28.026Z,75.07324219
2023-04-19T03:00:29.983Z,75.3112793
2023-04-19T03:01:31.941Z,75.20751953
2023-04-19T03:02:34.054Z,75.3112793
2023-04-19T03:04:05.432Z,75.51879883
2023-04-19T03:05:06.542Z,75.82397461
2023-04-19T03:06:08.443Z,76.02539063
2023-04-19T03:07:10.374Z,75.92773438
2023-04-19T03:08:12.424Z,76.02539063
2023-04-19T03:09:14.506Z,75.82397461
2023-04-19T03:10:15.534Z,75.72021484
2023-04-19T03:11:17.288Z,75.51879883
2023-04-19T03:12:18.415Z,75.48217773
2023-04-19T03:13:19.450Z,75.72021484
2023-04-19T03:14:20.433Z,75.82397461
2023-04-19T03:15:21.629Z,75.72021484
2023-04-19T03:16:23.494Z,75.72021484
2023-04-19T03:17:25.143Z,75.5859375
2023-04-19T03:18:26.921Z,75.72021484
2023-04-19T03:19:27.934Z,75.92773438
2023-04-19T03:20:29.000Z,75.82397461
2023-04-19T03:21:30.847Z,75.37841797
2023-04-19T03:22:31.845Z,75.37841797
2023-04-19T03:23:33.287Z,75.68359375
2023-04-19T03:25:04.978Z,75.48217773
2023-04-19T03:26:06.939Z,75.37841797
2023-04-19T03:27:07.974Z,75.37841797
2023-04-19T03:28:10.024Z,75.5859375
2023-04-19T03:29:11.006Z,75.5859375
2023-04-19T03:30:12.036Z,75.37841797
2023-04-19T03:31:14.101Z,75.37841797
2023-04-19T03:32:15.126Z,75.17089844
2023-04-19T03:33:16.990Z,75.2746582
2023-04-19T03:34:18.880Z,75.51879883
2023-04-19T03:35:20.002Z,75.61645508
2023-04-19T03:36:21.822Z,75.72021484
2023-04-19T03:37:23.372Z,75.72021484
2023-04-19T03:38:24.520Z,75.61645508
2023-04-19T03:39:26.447Z,75.61645508
2023-04-19T03:40:27.457Z,75.72021484
2023-04-19T03:41:29.284Z,75.37841797
2023-04-19T03:42:30.235Z,75.2746582
2023-04-19T03:43:31.920Z,75.37841797
2023-04-19T03:45:03.795Z,75.48217773
2023-04-19T03:46:05.392Z,75.2746582
2023-04-19T03:47:06.257Z,75.07324219
2023-04-19T03:48:07.917Z,74.96948242
2023-04-19T03:49:08.912Z,74.96948242
2023-04-19T03:50:09.888Z,75.07324219
2023-04-19T03:51:11.848Z,74.96948242
2023-04-19T03:52:13.579Z,75.17089844
2023-04-19T03:53:14.497Z,75.07324219
2023-04-19T03:54:15.746Z,75.2746582
2023-04-19T03:55:16.521Z,75.2746582
2023-04-19T03:56:18.366Z,75.17089844
2023-04-19T03:57:19.920Z,75.07324219
2023-04-19T03:58:21.036Z,74.86572266
2023-04-19T03:59:22.126Z,74.76196289
2023-04-19T04:00:23.126Z,74.66430664
2023-04-19T04:01:24.996Z,74.66430664
2023-04-19T04:02:26.189Z,74.76196289
2023-04-19T04:03:28.160Z,74.76196289
2023-04-19T04:04:29.329Z,74.86572266
2023-04-19T04:05:30.440Z,74.62768555
2023-04-19T04:06:32.741Z,74.62768555
2023-04-19T04:08:04.915Z,74.62768555
2023-04-19T04:09:05.972Z,74.83520508
2023-04-19T04:10:07.976Z,74.73144531
2023-04-19T04:11:09.056Z,74.83520508
2023-04-19T04:12:10.898Z,74.93286133
2023-04-19T04:13:12.898Z,75.03662109
2023-04-19T04:14:14.131Z,74.93286133
2023-04-19T04:15:14.955Z,74.73144531
2023-04-19T04:16:16.942Z,74.93286133
2023-04-19T04:17:18.534Z,75.24414063
2023-04-19T04:18:19.606Z,75.44555664
2023-04-19T04:19:21.383Z,75.85449219
2023-04-19T04:20:22.377Z,76.06201172
2023-04-19T04:21:23.933Z,76.15966797
2023-04-19T04:22:24.843Z,76.06201172
2023-04-19T04:23:25.891Z,75.85449219
2023-04-19T04:24:27.935Z,75.81787109
2023-04-19T04:25:29.092Z,75.20751953
2023-04-19T04:26:30.871Z,75.40893555
2023-04-19T04:27:32.398Z,76.12304688
2023-04-19T04:29:04.049Z,76.22680664
2023-04-19T04:30:05.061Z,76.12304688
2023-04-19T04:31:07.004Z,76.02539063
2023-04-19T04:32:08.096Z,76.53198242
2023-04-19T04:33:09.937Z,76.63574219
2023-04-19T04:34:10.955Z,76.33056641
2023-04-19T04:35:12.108Z,76.84326172
2023-04-19T04:36:14.003Z,77.34985352
2023-04-19T04:37:15.029Z,76.33056641
2023-04-19T04:38:24.077Z,75.51269531
2023-04-19T04:39:17.850Z,75.68359375
2023-04-19T04:40:19.443Z,75.47607422
2023-04-19T04:41:22.668Z,75.47607422
2023-04-19T04:42:22.647Z,75.2746582
2023-04-19T04:43:23.755Z,74.56054688
2023-04-19T04:44:25.794Z,74.04785156
2023-04-19T04:45:26.753Z,74.15161133
2023-04-19T04:46:28.622Z,74.04785156
2023-04-19T04:47:29.681Z,74.08447266
2023-04-19T04:48:31.380Z,73.9440918
2023-04-19T04:50:04.024Z,75.17089844
2023-04-19T04:51:05.893Z,75.57983398
2023-04-19T04:52:07.040Z,75.57983398
2023-04-19T04:53:07.972Z,74.96948242
2023-04-19T04:54:09.255Z,74.96948242
2023-04-19T04:55:10.433Z,74.96948242
2023-04-19T04:56:12.463Z,74.56054688
2023-04-19T04:57:13.935Z,74.56054688
2023-04-19T04:58:15.770Z,74.45678711
2023-04-19T04:59:16.812Z,74.42016602
2023-04-19T05:00:18.441Z,74.21875
2023-04-19T05:01:20.657Z,74.42016602
2023-04-19T05:02:21.596Z,73.70605469
2023-04-19T05:03:23.520Z,73.29711914
2023-04-19T05:04:24.801Z,73.09570313
2023-04-19T05:05:26.074Z,73.09570313
2023-04-19T05:06:28.091Z,73.19335938
2023-04-19T05:07:29.122Z,73.40087891
2023-04-19T05:08:31.051Z,73.40087891
2023-04-19T05:10:04.050Z,73.09570313
2023-04-19T05:11:06.019Z,72.99194336
2023-04-19T05:12:07.119Z,72.88818359
2023-04-19T05:13:08.673Z,72.88818359
2023-04-19T05:14:10.415Z,72.88818359
2023-04-19T05:15:11.595Z,72.99194336
2023-04-19T05:16:13.790Z,72.99194336
2023-04-19T05:17:14.857Z,72.99194336
2023-04-19T05:18:16.461Z,72.99194336
2023-04-19T05:19:17.673Z,73.50463867
2023-04-19T05:20:19.531Z,72.79052734
2023-04-19T05:21:21.546Z,72.68676758
2023-04-19T05:22:22.474Z,72.68676758
2023-04-19T05:23:24.531Z,72.88818359
2023-04-19T05:24:25.572Z,72.99194336
2023-04-19T05:25:26.796Z,73.09570313
2023-04-19T05:26:28.533Z,72.99194336
2023-04-19T05:27:29.753Z,72.88818359
2023-04-19T05:28:31.949Z,72.99194336
2023-04-19T05:30:03.616Z,72.88818359
2023-04-19T05:31:05.391Z,72.99194336
2023-04-19T05:32:06.455Z,72.79052734
2023-04-19T05:33:07.706Z,72.58300781
2023-04-19T05:34:09.570Z,72.68676758
2023-04-19T05:35:10.728Z,72.79052734
2023-04-19T05:36:12.963Z,72.79052734
2023-04-19T05:37:13.884Z,72.99194336
2023-04-19T05:38:15.937Z,72.99194336
2023-04-19T05:39:17.965Z,73.09570313
2023-04-19T05:40:19.108Z,72.99194336
2023-04-19T05:41:21.024Z,72.99194336
2023-04-19T05:42:22.128Z,72.79052734
2023-04-19T05:43:23.939Z,72.88818359
2023-04-19T05:44:25.046Z,72.88818359
2023-04-19T05:45:26.201Z,72.99194336
2023-04-19T05:46:28.040Z,72.88818359
2023-04-19T05:47:29.285Z,72.58300781
2023-04-19T05:48:30.937Z,72.79052734
2023-04-19T05:50:03.751Z,72.88818359
2023-04-19T05:51:05.447Z,73.19335938
2023-04-19T05:52:06.782Z,73.19335938
2023-04-19T05:53:07.803Z,72.99194336
2023-04-19T05:54:08.963Z,72.88818359
2023-04-19T05:55:10.054Z,72.99194336
2023-04-19T05:56:11.955Z,72.88818359
2023-04-19T05:57:12.984Z,72.55249023
2023-04-19T05:58:14.935Z,72.3449707
2023-04-19T05:59:16.101Z,72.24121094
2023-04-19T06:00:17.924Z,72.3449707
2023-04-19T06:01:19.559Z,72.24121094
2023-04-19T06:02:20.855Z,72.24121094
2023-04-19T06:03:21.673Z,72.14355469
2023-04-19T06:04:24.063Z,72.3449707
2023-04-19T06:05:24.551Z,72.44873047
2023-04-19T06:06:25.991Z,71.93603516
2023-04-19T06:07:31.802Z,71.93603516
2023-04-19T06:08:28.404Z,71.83837891
2023-04-19T06:09:30.451Z,71.52709961
2023-04-19T06:11:11.909Z,71.52709961
2023-04-19T06:12:03.948Z,71.73461914
2023-04-19T06:13:04.909Z,71.97265625
2023-04-19T06:14:05.965Z,72.27783203
2023-04-19T06:15:07.360Z,72.47924805
2023-04-19T06:16:09.095Z,72.47924805
2023-04-19T06:17:10.425Z,72.27783203
2023-04-19T06:18:19.394Z,72.3815918
2023-04-19T06:19:16.961Z,72.27783203
2023-04-19T06:20:18.606Z,72.27783203
2023-04-19T06:21:21.261Z,72.3815918
2023-04-19T06:22:23.139Z,72.47924805
2023-04-19T06:23:25.929Z,72.58300781
2023-04-19T06:24:28.062Z,72.14355469
2023-04-19T06:25:30.687Z,72.3449707
2023-04-19T06:27:05.353Z,71.93603516
2023-04-19T06:28:06.428Z,71.73461914
2023-04-19T06:29:11.092Z,71.73461914
2023-04-19T06:30:12.992Z,71.83837891
2023-04-19T06:31:15.462Z,71.73461914
2023-04-19T06:32:16.519Z,71.83837891
2023-04-19T06:33:18.225Z,71.73461914
2023-04-19T06:34:20.178Z,71.73461914
2023-04-19T06:35:21.458Z,71.83837891
2023-04-19T06:36:23.524Z,71.93603516
2023-04-19T06:37:24.623Z,72.24121094
2023-04-19T06:38:27.025Z,72.14355469
2023-04-19T06:39:29.098Z,72.14355469
2023-04-19T06:40:31.390Z,71.49658203
2023-04-19T06:42:04.414Z,71.39282227
2023-04-19T06:43:06.713Z,71.49658203
2023-04-19T06:44:08.030Z,71.69799805
2023-04-19T06:45:09.098Z,71.6003418
2023-04-19T06:46:10.995Z,71.63085938
2023-04-19T06:47:12.269Z,71.83837891
2023-04-19T06:48:13.750Z,72.03979492
2023-04-19T06:49:15.734Z,72.03979492
2023-04-19T06:50:16.742Z,72.24121094
2023-04-19T06:51:18.388Z,72.03979492
2023-04-19T06:52:19.387Z,71.73461914
2023-04-19T06:53:20.568Z,71.73461914
2023-04-19T06:54:24.410Z,71.83837891
2023-04-19T06:55:25.506Z,72.03979492
2023-04-19T06:56:27.559Z,72.24121094
2023-04-19T06:57:28.710Z,72.24121094
2023-04-19T06:58:31.784Z,72.14355469
2023-04-19T07:00:02.234Z,72.14355469
2023-04-19T07:01:04.097Z,71.93603516
2023-04-19T07:02:06.055Z,71.80175781
2023-04-19T07:03:07.495Z,71.6003418
2023-04-19T07:04:09.601Z,71.6003418
2023-04-19T07:05:10.496Z,71.6003418
2023-04-19T07:06:12.624Z,71.6003418
2023-04-19T07:07:13.935Z,71.69799805
2023-04-19T07:08:15.066Z,71.80175781
2023-04-19T07:09:17.174Z,71.80175781
2023-04-19T07:10:19.084Z,71.69799805
2023-04-19T07:11:22.447Z,71.19140625
2023-04-19T07:12:21.929Z,71.19140625
2023-04-19T07:13:22.882Z,70.98388672
2023-04-19T07:14:24.181Z,71.08764648
2023-04-19T07:15:24.979Z,71.08764648
2023-04-19T07:16:27.056Z,71.19140625
2023-04-19T07:17:27.886Z,70.88623047
2023-04-19T07:18:28.980Z,70.84960938
2023-04-19T07:20:01.882Z,70.98388672
2023-04-19T07:21:02.834Z,70.98388672
2023-04-19T07:22:03.781Z,70.98388672
2023-04-19T07:23:05.468Z,70.74584961
2023-04-19T07:24:06.537Z,70.34301758
2023-04-19T07:25:07.563Z,70.34301758
2023-04-19T07:26:09.416Z,70.44067383
2023-04-19T07:27:10.344Z,70.54443359
2023-04-19T07:28:11.966Z,70.84960938
2023-04-19T07:29:13.986Z,70.84960938
2023-04-19T07:30:15.872Z,71.05712891
2023-04-19T07:31:17.542Z,72.88818359
2023-04-19T07:32:18.754Z,72.79052734
2023-04-19T07:33:19.557Z,72.88818359
2023-04-19T07:34:20.424Z,73.29711914
2023-04-19T07:35:21.460Z,72.79052734
2023-04-19T07:36:22.900Z,72.58300781
2023-04-19T07:37:23.988Z,72.79052734
2023-04-19T07:38:25.819Z,72.68676758
2023-04-19T07:39:27.325Z,72.99194336
2023-04-19T07:40:28.901Z,73.49853516
2023-04-19T07:41:31.219Z,73.80981445
2023-04-19T07:43:02.718Z,73.40087891
2023-04-19T07:44:04.376Z,73.19335938
2023-04-19T07:45:05.327Z,72.99194336
2023-04-19T07:46:06.989Z,72.99194336
2023-04-19T07:47:08.909Z,73.09570313
2023-04-19T07:48:09.780Z,73.40087891
2023-04-19T07:49:10.744Z,73.66943359
2023-04-19T07:50:12.608Z,73.57177734
2023-04-19T07:51:15.401Z,73.26049805
2023-04-19T07:52:16.511Z,72.3449707
2023-04-19T07:53:17.458Z,71.83837891
2023-04-19T07:54:18.566Z,72.3449707
2023-04-19T07:55:19.187Z,72.44873047
2023-04-19T07:56:20.913Z,71.42944336
2023-04-19T07:57:21.818Z,71.12426758
2023-04-19T07:58:23.289Z,70.91674805
2023-04-19T07:59:25.120Z,71.12426758
2023-04-19T08:00:26.894Z,71.63085938
2023-04-19T08:01:27.903Z,71.53320313
2023-04-19T08:03:02.622Z,71.22802734
2023-04-19T08:04:04.303Z,71.45996094
2023-04-19T08:05:05.526Z,71.25854492
2023-04-19T08:06:06.216Z,71.32568359
2023-04-19T08:07:07.190Z,71.36230469
2023-04-19T08:08:08.034Z,71.36230469
2023-04-19T08:09:09.876Z,71.36230469
2023-04-19T08:10:11.483Z,71.36230469
2023-04-19T08:11:12.489Z,71.5637207
2023-04-19T08:12:26.302Z,71.77124023
2023-04-19T08:13:15.879Z,72.07641602
2023-04-19T08:14:30.471Z,71.77124023
2023-04-19T08:17:26.819Z,71.66748047
2023-04-19T08:18:21.419Z,72.17407227
2023-04-19T08:19:22.949Z,72.27783203
2023-04-19T08:20:23.950Z,71.97265625
2023-04-19T08:21:31.269Z,71.97265625
2023-04-19T08:22:27.086Z,71.77124023
2023-04-19T08:23:34.947Z,71.86889648
2023-04-19T08:24:29.063Z,71.86889648
2023-04-19T08:26:01.439Z,72.27783203
2023-04-19T08:27:03.337Z,72.3815918
2023-04-19T08:28:05.159Z,72.3815918
2023-04-19T08:29:06.082Z,72.58300781
2023-04-19T08:30:07.955Z,72.07641602
2023-04-19T08:31:08.869Z,71.05712891
2023-04-19T08:32:10.500Z,70.61157227
2023-04-19T08:33:11.487Z,70.10498047
2023-04-19T08:34:12.913Z,70.0012207
2023-04-19T08:35:13.841Z,70.20874023
2023-04-19T08:36:19.437Z,70.0012207
2023-04-19T08:37:16.971Z,70.41015625
2023-04-19T08:38:17.897Z,70.51391602
2023-04-19T08:39:31.698Z,70.51391602
2023-04-19T08:40:22.020Z,69.89746094
2023-04-19T08:41:23.929Z,69.49462891
2023-04-19T08:42:35.698Z,69.49462891
2023-04-19T08:43:26.083Z,70.0012207
2023-04-19T08:44:36.067Z,70.30639648
2023-04-19T08:45:29.002Z,69.39086914
2023-04-19T08:47:00.333Z,69.28710938
2023-04-19T08:48:02.817Z,69.18945313
2023-04-19T08:49:04.702Z,69.59228516
2023-04-19T08:50:17.394Z,69.59228516
2023-04-19T08:51:08.669Z,69.49462891
2023-04-19T08:52:10.622Z,69.08569336
2023-04-19T08:54:14.418Z,68.64624023
2023-04-19T08:55:16.032Z,69.15283203
2023-04-19T08:56:28.074Z,69.36035156
2023-04-19T08:57:18.976Z,69.45800781
2023-04-19T08:58:32.907Z,69.76318359
2023-04-19T08:59:22.269Z,69.86694336
2023-04-19T09:00:23.877Z,69.45800781
2023-04-19T09:02:26.764Z,69.62890625
2023-04-19T09:03:27.722Z,69.32373047
2023-04-19T09:06:01.509Z,69.32373047
2023-04-19T09:07:02.405Z,69.42749023
2023-04-19T09:08:03.365Z,68.61572266
2023-04-19T09:09:04.334Z,68.27392578
2023-04-19T09:10:06.935Z,68.68286133
2023-04-19T09:11:08.728Z,68.07250977
2023-04-19T09:12:09.676Z,67.56591797
2023-04-19T09:13:10.879Z,67.12646484
2023-04-19T09:14:11.898Z,67.02270508
2023-04-19T09:15:12.881Z,66.82128906
2023-04-19T09:16:14.578Z,66.7175293
2023-04-19T09:17:15.441Z,66.91894531
2023-04-19T09:18:17.377Z,67.12646484
2023-04-19T09:19:24.304Z,66.7175293
2023-04-19T09:20:20.452Z,66.41235352
2023-04-19T09:21:22.041Z,65.69824219
2023-04-19T09:22:23.142Z,65.60058594
2023-04-19T09:23:25.097Z,65.39306641
2023-04-19T09:24:25.978Z,65.66772461
2023-04-19T09:25:39.089Z,65.46630859
2023-04-19T09:26:27.913Z,65.36254883
2023-04-19T09:27:29.375Z,65.57006836
2023-04-19T09:29:01.444Z,65.36254883
2023-04-19T09:30:03.584Z,65.36254883
2023-04-19T09:31:20.422Z,65.63720703
2023-04-19T09:32:05.891Z,65.63720703
2023-04-19T09:33:07.110Z,65.13061523
2023-04-19T09:34:07.984Z,64.21508789
2023-04-19T09:35:09.315Z,64.62402344
2023-04-19T09:36:11.847Z,64.31884766
2023-04-19T09:37:17.259Z,64.11743164
2023-04-19T09:38:13.025Z,63.81225586
2023-04-19T09:39:15.551Z,63.81225586
2023-04-19T09:40:16.885Z,63.81225586
2023-04-19T09:41:19.112Z,63.70849609
2023-04-19T09:42:36.012Z,63.50708008
2023-04-19T09:43:53.271Z,63.2019043
2023-04-19T09:45:01.773Z,63.00048828
2023-04-19T09:45:30.951Z,63.50708008
2023-04-19T09:46:25.194Z,63.40332031
2023-04-19T09:47:26.223Z,63.50708008
2023-04-19T09:48:27.415Z,64.21508789
2023-04-19T09:49:41.591Z,62.86621094
2023-04-19T09:51:04.983Z,62.86621094
2023-04-19T09:52:03.911Z,63.06762695
2023-04-19T09:53:04.864Z,62.56103516
2023-04-19T09:54:06.100Z,62.45727539
2023-04-19T09:55:17.723Z,62.73803711
2023-04-19T09:56:09.427Z,62.63427734
2023-04-19T09:57:10.901Z,62.32910156
2023-04-19T09:58:13.281Z,61.62109375
2023-04-19T09:59:20.812Z,61.62109375
2023-04-19T10:00:16.423Z,61.31591797
2023-04-19T10:01:17.775Z,61.51733398
2023-04-19T10:02:20.515Z,61.51733398
2023-04-19T10:03:22.541Z,61.82250977
2023-04-19T10:04:31.747Z,61.82250977
2023-04-19T10:05:24.956Z,62.12768555
2023-04-19T10:06:45.958Z,61.82250977
2023-04-19T10:07:30.796Z,61.41357422
2023-04-19T10:09:00.224Z,61.62109375
2023-04-19T10:10:16.122Z,61.71875
2023-04-19T10:11:03.883Z,62.02392578
2023-04-19T10:12:24.032Z,61.71875
2023-04-19T10:13:18.834Z,61.41357422
2023-04-19T10:14:08.998Z,61.31591797
2023-04-19T10:15:10.993Z,61.01074219
2023-04-19T10:16:19.502Z,61.62109375
2023-04-19T10:17:14.491Z,61.62109375
2023-04-19T10:18:15.967Z,61.31591797
2023-04-19T10:19:17.289Z,61.48681641
2023-04-19T10:20:18.138Z,60.88256836
2023-04-19T10:21:19.890Z,60.98022461
2023-04-19T10:22:21.041Z,61.08398438
2023-04-19T10:23:22.147Z,61.48681641
2023-04-19T10:24:23.273Z,61.79199219
2023-04-19T10:25:24.267Z,61.9934082
2023-04-19T10:26:25.934Z,61.66381836
2023-04-19T10:27:26.884Z,61.35864258
2023-04-19T10:28:29.160Z,60.94970703
2023-04-19T10:30:01.646Z,61.76147461
2023-04-19T10:31:03.493Z,62.17041016
2023-04-19T10:32:04.387Z,61.96899414
2023-04-19T10:33:05.434Z,61.76147461
2023-04-19T10:34:06.928Z,61.12670898
2023-04-19T10:35:08.060Z,60.41870117
2023-04-19T10:36:10.080Z,61.23046875
2023-04-19T10:37:11.083Z,60.58959961
2023-04-19T10:38:13.092Z,59.77783203
2023-04-19T10:39:14.603Z,58.66699219
2023-04-19T10:40:16.867Z,58.16040039
2023-04-19T10:41:19.075Z,58.8684082
2023-04-19T10:42:19.477Z,59.27124023
2023-04-19T10:43:20.638Z,58.97216797
2023-04-19T10:44:21.877Z,58.63647461
2023-04-19T10:45:22.743Z,58.03222656
2023-04-19T10:46:24.578Z,57.52563477
2023-04-19T10:47:26.113Z,57.421875
2023-04-19T10:48:28.198Z,56.40869141
2023-04-19T10:49:59.978Z,55.90209961
2023-04-19T10:51:01.006Z,56.10351563
2023-04-19T10:52:01.963Z,56.43920898
2023-04-19T10:53:03.218Z,56.23168945
2023-04-19T10:54:04.288Z,56.23168945
2023-04-19T10:55:05.366Z,56.66503906
2023-04-19T10:56:06.937Z,57.37304688
2023-04-19T10:57:08.020Z,57.58056641
2023-04-19T10:58:09.142Z,57.24487305
2023-04-19T10:59:10.188Z,56.94580078
2023-04-19T11:00:11.268Z,57.24487305
2023-04-19T11:01:13.090Z,56.84204102
2023-04-19T11:02:14.506Z,56.84204102
2023-04-19T11:03:16.665Z,56.84204102
2023-04-19T11:04:18.609Z,57.34863281
2023-04-19T11:05:20.380Z,57.52563477
2023-04-19T11:06:21.463Z,57.421875
2023-04-19T11:07:22.625Z,56.40869141
2023-04-19T11:08:24.507Z,56.71386719
2023-04-19T11:09:26.420Z,57.01904297
2023-04-19T11:10:27.939Z,57.45239258
2023-04-19T11:12:00.467Z,57.55004883
2023-04-19T11:13:01.588Z,57.65380859
2023-04-19T11:14:02.677Z,57.67822266
2023-04-19T11:15:03.583Z,57.78198242
2023-04-19T11:16:04.956Z,57.78198242
2023-04-19T11:17:06.617Z,57.78198242
2023-04-19T11:18:12.981Z,57.95898438
2023-04-19T11:19:08.589Z,58.25805664
2023-04-19T11:20:09.549Z,58.25805664
2023-04-19T11:21:11.363Z,57.85522461
2023-04-19T11:22:12.967Z,57.95898438
2023-04-19T11:23:13.987Z,58.05664063
2023-04-19T11:24:14.965Z,58.36181641
2023-04-19T11:25:17.207Z,57.45239258
2023-04-19T11:26:18.175Z,57.65380859
2023-04-19T11:27:19.470Z,57.95898438